Time;durP1;ratioP1;P1;durP2;ratioP2;P2;SDS_P1;SDS_P2;PMS_P1;PMS_P2;Temp;Humidity;BMP_temperature;BMP_pressure;BME280_temperature;BME280_humidity;BME280_pressure;Samples;Min_cycle;Max_cycle;Signal;HPM_P1;HPM_P2
2022/12/11 00:01:09;;;;;;;;;;;;;;;-2.30;94.14;98849.78;10284546;23;19921;-76
2022/12/11 00:05:10;;;;;;;;;;;;;;;-2.34;94.12;98855.53;10283255;23;19956;-76
2022/12/11 00:09:12;;;;;;;;;;;;;;;-2.30;95.47;98847.22;10257910;23;19912;-76
2022/12/11 00:13:14;;;;;;;;;;;;;;;-2.21;94.47;98841.59;10241631;23;19945;-76
2022/12/11 00:17:15;;;;;;;;;;;;;;;-2.18;94.96;98844.25;10230905;23;19908;-76
2022/12/11 00:21:16;;;;;;;;;;;;;;;-2.11;95.24;98836.06;10229572;23;19928;-76
2022/12/11 00:25:18;;;;;;;;;;;;;;;-2.04;94.70;98837.13;10224880;23;19953;-76
2022/12/11 00:29:19;;;;;;;;;;;;;;;-2.00;95.64;98824.56;10222240;23;19932;-76
2022/12/11 00:33:21;;;;;;;;;;;;;;;-2.00;95.46;98827.13;10219170;22;19932;-76
2022/12/11 00:37:23;;;;;;;;;;;;;;;-2.00;95.57;98824.56;10363826;22;19923;-75
2022/12/11 00:41:24;;;;;;;;;;;;;;;-1.97;95.21;98832.34;10364823;23;19947;-75
2022/12/11 00:45:25;;;;;;;;;;;;;;;-1.90;94.67;98833.41;10357096;23;20005;-75
2022/12/11 00:49:27;;;;;;;;;;;;;;;-1.87;95.32;98838.59;10354354;23;19947;-75
2022/12/11 00:53:28;;;;;;;;;;;;;;;-1.81;95.60;98843.91;10302014;23;20013;-75
2022/12/11 00:57:29;;;;;;;;;;;;;;;-1.76;95.57;98846.63;10325815;23;19954;-75
2022/12/11 01:01:31;;;;;;;;;;;;;;;-1.74;95.59;98845.88;10293947;23;19924;-75
2022/12/11 01:05:33;;;;;;;;;;;;;;;-1.72;94.22;98841.69;10322035;23;19919;-75
2022/12/11 01:13:54;;;;;;;;;;;;;;;-1.83;93.98;98837.91;10307896;23;20376;-76
2022/12/11 01:17:56;;;;;;;;;;;;;;;-1.79;95.12;98831.25;10337843;23;20310;-75
2022/12/11 01:21:57;;;;;;;;;;;;;;;-1.71;94.42;98832.38;10312792;23;20374;-75
2022/12/11 01:26:03;;;;;;;;;;;;;;;-1.68;94.76;98829.94;10336970;23;19923;-75
2022/12/11 01:30:06;;;;;;;;;;;;;;;-1.64;94.98;98835.19;10276725;23;20882;-75
2022/12/11 01:34:08;;;;;;;;;;;;;;;-1.63;95.32;98836.91;10282066;23;19962;-75
2022/12/11 01:38:09;;;;;;;;;;;;;;;-1.61;95.26;98840.41;10305712;23;19920;-75
2022/12/11 01:42:15;;;;;;;;;;;;;;;-1.60;94.34;98847.22;10306031;23;19954;-75
2022/12/11 01:46:17;;;;;;;;;;;;;;;-1.59;94.79;98853.19;10297267;23;19947;-75
2022/12/11 01:50:18;;;;;;;;;;;;;;;-1.55;95.48;98863.50;10304457;23;19965;-75
2022/12/11 01:54:21;;;;;;;;;;;;;;;-1.49;95.53;98865.41;10305019;23;19953;-75
2022/12/11 01:58:25;;;;;;;;;;;;;;;-1.47;95.29;98873.09;10303912;23;20295;-77
2022/12/11 02:02:28;;;;;;;;;;;;;;;-1.52;95.39;98871.25;10268361;23;19935;-76
2022/12/11 02:06:34;;;;;;;;;;;;;;;-1.46;95.16;98864.63;10329583;23;19923;-75
2022/12/11 02:10:44;;;;;;;;;;;;;;;-1.46;95.37;98860.41;10328216;23;19999;-75
2022/12/11 02:15:04;;;;;;;;;;;;;;;-1.45;94.97;98853.63;10305462;23;19963;-75
2022/12/11 02:19:25;;;;;;;;;;;;;;;-1.45;95.40;98849.41;10300616;23;19947;-75
2022/12/11 02:23:33;;;;;;;;;;;;;;;-1.42;95.59;98853.75;10277889;23;20265;-75
2022/12/11 02:27:37;;;;;;;;;;;;;;;-1.40;95.42;98847.03;10329335;23;19924;-75
2022/12/11 02:31:50;;;;;;;;;;;;;;;-1.41;95.24;98840.22;10296676;23;19927;-75
2022/12/11 02:35:55;;;;;;;;;;;;;;;-1.40;95.51;98839.41;10326576;23;19931;-75
2022/12/11 02:40:07;;;;;;;;;;;;;;;-1.35;95.32;98845.50;10299457;23;20238;-75
2022/12/11 02:44:24;;;;;;;;;;;;;;;-1.36;94.99;98842.09;10277448;23;19931;-75
2022/12/11 02:48:50;;;;;;;;;;;;;;;-1.36;95.21;98841.22;10313189;23;20354;-75
2022/12/11 02:53:01;;;;;;;;;;;;;;;-1.31;95.54;98839.69;10325947;23;19927;-75
2022/12/11 02:57:42;;;;;;;;;;;;;;;-1.32;95.26;98837.97;10320846;23;20306;-75
2022/12/11 06:32:43;;;;;;;;;;;;;;;-0.82;93.26;98769.94;10400995;22;19957;-77
2022/12/11 06:36:44;;;;;;;;;;;;;;;-0.82;93.63;98767.38;10327906;23;19920;-77
2022/12/11 06:40:53;;;;;;;;;;;;;;;-0.79;93.56;98767.47;10276101;23;21058;-77
2022/12/11 06:44:56;;;;;;;;;;;;;;;-0.86;92.93;98770.66;10328512;23;19989;-77
2022/12/11 06:48:57;;;;;;;;;;;;;;;-0.92;92.78;98769.63;10218738;23;19959;-77
2022/12/11 06:52:58;;;;;;;;;;;;;;;-0.94;92.71;98767.88;10228840;23;19924;-77
2022/12/11 06:57:00;;;;;;;;;;;;;;;-0.93;93.04;98760.25;10202679;23;19924;-77
2022/12/11 07:01:02;;;;;;;;;;;;;;;-0.92;92.47;98769.63;10219717;23;19924;-77
2022/12/11 07:05:04;;;;;;;;;;;;;;;-0.86;92.96;98780.84;10224838;23;20308;-77
2022/12/11 07:09:05;;;;;;;;;;;;;;;-0.84;92.85;98782.63;10201073;23;19920;-77
2022/12/11 07:13:07;;;;;;;;;;;;;;;-0.87;92.75;98790.19;10201890;23;20322;-77
2022/12/11 07:17:09;;;;;;;;;;;;;;;-0.89;92.76;98783.31;10219079;23;19928;-77
2022/12/11 07:21:11;;;;;;;;;;;;;;;-0.99;91.99;98787.25;10227335;23;20284;-76
2022/12/11 07:25:13;;;;;;;;;;;;;;;-1.01;92.46;98793.97;10226314;23;19924;-76
2022/12/11 07:29:14;;;;;;;;;;;;;;;-0.99;92.28;98783.03;10225722;23;19927;-76
2022/12/11 07:33:15;;;;;;;;;;;;;;;-1.00;91.78;98786.38;10218767;23;20299;-76
2022/12/11 07:37:17;;;;;;;;;;;;;;;-1.11;91.87;98787.72;10204755;23;20536;-76
2022/12/11 07:41:18;;;;;;;;;;;;;;;-1.11;91.34;98794.50;10237151;23;19924;-76
2022/12/11 07:45:19;;;;;;;;;;;;;;;-1.14;92.42;98795.28;10252138;23;19920;-77
2022/12/11 07:49:21;;;;;;;;;;;;;;;-1.13;92.28;98794.44;10306712;22;19924;-77
2022/12/11 07:53:22;;;;;;;;;;;;;;;-1.08;92.04;98799.69;10250926;23;19944;-78
2022/12/11 07:57:23;;;;;;;;;;;;;;;-1.01;92.13;98794.84;10256064;23;19924;-77
2022/12/11 08:01:26;;;;;;;;;;;;;;;-0.98;92.26;98787.28;10263273;23;19904;-77
2022/12/11 08:05:27;;;;;;;;;;;;;;;-0.97;92.01;98791.56;10289086;23;19931;-77
2022/12/11 08:09:29;;;;;;;;;;;;;;;-0.92;91.60;98789.16;10309934;22;19943;-77
2022/12/11 08:13:31;;;;;;;;;;;;;;;-0.94;91.21;98786.56;10278579;23;19951;-78
2022/12/11 08:17:32;;;;;;;;;;;;;;;-0.91;91.69;98788.34;10205195;23;19932;-78
2022/12/11 08:21:40;;;;;;;;;;;;;;;-0.85;91.41;98787.69;10261174;23;20003;-78
2022/12/11 08:25:41;;;;;;;;;;;;;;;-0.82;91.52;98787.78;10256588;23;20341;-78
2022/12/11 08:29:43;;;;;;;;;;;;;;;-0.83;91.17;98792.00;10231286;23;19928;-78
2022/12/11 08:33:44;;;;;;;;;;;;;;;-0.82;91.53;98786.09;10223569;23;19954;-78
2022/12/11 08:37:47;;;;;;;;;;;;;;;-0.82;91.60;98788.63;10230501;23;19983;-78
2022/12/11 08:41:48;;;;;;;;;;;;;;;-0.80;91.40;98773.41;10269748;23;20532;-78
2022/12/11 08:45:50;;;;;;;;;;;;;;;-0.79;91.13;98786.19;10280844;23;19927;-78
2022/12/11 08:49:51;;;;;;;;;;;;;;;-0.73;90.96;98791.44;10279997;23;19920;-78
2022/12/11 08:53:54;;;;;;;;;;;;;;;-0.73;91.23;98778.72;10280625;23;19920;-78
2022/12/11 08:57:55;;;;;;;;;;;;;;;-0.69;91.20;98772.03;10277490;23;19924;-78
2022/12/11 09:01:57;;;;;;;;;;;;;;;-0.76;90.74;98772.66;10251362;23;19916;-78
2022/12/11 09:05:58;;;;;;;;;;;;;;;-0.70;90.60;98762.66;10276529;23;19920;-78
2022/12/11 09:09:59;;;;;;;;;;;;;;;-0.65;90.61;98763.66;10298511;23;19947;-78
2022/12/11 09:14:02;;;;;;;;;;;;;;;-0.58;90.56;98757.03;10263969;23;19924;-78
2022/12/11 09:18:08;;;;;;;;;;;;;;;-0.56;90.22;98755.41;10237298;23;19924;-78
2022/12/11 09:22:10;;;;;;;;;;;;;;;-0.64;90.41;98753.50;10256117;23;20216;-78
2022/12/11 09:26:13;;;;;;;;;;;;;;;-0.66;90.36;98759.38;10225572;23;19964;-78
2022/12/11 09:30:14;;;;;;;;;;;;;;;-0.65;90.39;98767.06;10243322;23;19950;-78
2022/12/11 09:34:16;;;;;;;;;;;;;;;-0.59;90.53;98771.47;10264931;23;20624;-78
2022/12/11 09:38:17;;;;;;;;;;;;;;;-0.57;90.71;98774.06;10260292;23;19920;-78
2022/12/11 09:42:28;;;;;;;;;;;;;;;-0.53;91.14;98773.38;10281830;23;19927;-78
2022/12/11 09:46:31;;;;;;;;;;;;;;;-0.46;90.63;98771.03;10271337;23;19972;-78
2022/12/11 09:50:34;;;;;;;;;;;;;;;-0.40;90.92;98771.19;10252352;23;20188;-78
2022/12/11 09:54:37;;;;;;;;;;;;;;;-0.35;90.77;98772.22;10275536;23;19951;-78
2022/12/11 09:58:42;;;;;;;;;;;;;;;-0.27;90.77;98761.34;10251929;23;19981;-78
2022/12/11 10:03:02;;;;;;;;;;;;;;;-0.24;90.13;98752.09;10270026;23;20353;-78
2022/12/11 10:07:23;;;;;;;;;;;;;;;-0.25;89.90;98745.25;10278351;23;19920;-78
2022/12/11 10:11:37;;;;;;;;;;;;;;;-0.22;89.60;98735.13;10256227;23;20008;-78
2022/12/11 10:15:58;;;;;;;;;;;;;;;-0.21;89.61;98738.56;10270646;23;20491;-78
2022/12/11 10:20:15;;;;;;;;;;;;;;;-0.19;89.18;98737.75;10251343;23;20272;-78
2022/12/11 10:24:22;;;;;;;;;;;;;;;-0.15;89.10;98737.06;10253354;23;20314;-78
2022/12/11 10:28:43;;;;;;;;;;;;;;;-0.10;89.28;98726.97;10232478;23;20227;-78
2022/12/11 10:32:53;;;;;;;;;;;;;;;-0.05;89.30;98731.34;10244766;23;19920;-77
2022/12/11 10:36:54;;;;;;;;;;;;;;;-0.04;89.46;98725.44;10278051;23;20007;-77
2022/12/11 10:41:06;;;;;;;;;;;;;;;-0.09;88.19;98719.34;10252446;23;20165;-78
2022/12/11 10:45:14;;;;;;;;;;;;;;;-0.02;88.29;98711.03;10272724;23;19949;-77
2022/12/11 10:49:35;;;;;;;;;;;;;;;0.05;87.60;98706.97;10252044;23;20638;-77
2022/12/11 10:53:39;;;;;;;;;;;;;;;0.11;87.41;98703.69;10276813;23;19931;-78
2022/12/11 10:57:41;;;;;;;;;;;;;;;0.10;87.24;98687.50;10253045;23;19924;-77
2022/12/11 11:01:45;;;;;;;;;;;;;;;0.14;87.08;98679.09;10273854;23;20359;-77
2022/12/11 11:05:49;;;;;;;;;;;;;;;0.20;87.36;98675.88;10253665;23;19932;-78
2022/12/11 11:10:01;;;;;;;;;;;;;;;0.28;87.38;98671.78;10252432;23;19924;-79
2022/12/11 11:14:12;;;;;;;;;;;;;;;0.32;86.98;98675.28;10253090;23;20124;-78
2022/12/11 11:18:24;;;;;;;;;;;;;;;0.27;86.54;98670.06;10270369;23;19920;-78
2022/12/11 11:22:26;;;;;;;;;;;;;;;0.35;86.37;98665.13;10251995;23;19979;-78
2022/12/11 11:26:30;;;;;;;;;;;;;;;0.35;85.53;98668.56;10256369;23;19928;-78
2022/12/11 11:30:57;;;;;;;;;;;;;;;0.32;85.61;98659.97;10225630;23;19931;-78
2022/12/11 11:35:14;;;;;;;;;;;;;;;0.44;85.63;98662.81;10231434;23;19920;-78
2022/12/11 11:39:24;;;;;;;;;;;;;;;0.51;86.21;98652.78;10255749;23;20006;-78
2022/12/11 11:43:46;;;;;;;;;;;;;;;0.54;86.30;98647.75;10256110;23;19950;-78
2022/12/11 11:47:52;;;;;;;;;;;;;;;0.50;85.24;98650.19;10243632;23;19966;-77
2022/12/11 11:52:12;;;;;;;;;;;;;;;0.55;85.18;98646.94;10228333;23;19923;-77
2022/12/11 11:56:22;;;;;;;;;;;;;;;0.68;85.44;98639.53;10276190;23;19931;-77
2022/12/11 12:00:24;;;;;;;;;;;;;;;0.70;84.48;98637.88;10220873;23;19959;-77
2022/12/11 12:04:33;;;;;;;;;;;;;;;0.58;84.05;98626.56;10230844;23;19924;-77
2022/12/11 12:08:44;;;;;;;;;;;;;;;0.62;83.63;98618.97;10253570;23;19955;-77
2022/12/11 12:12:50;;;;;;;;;;;;;;;0.61;84.39;98623.22;10279833;23;20006;-77
2022/12/11 12:17:00;;;;;;;;;;;;;;;0.71;84.25;98616.59;10220091;23;20661;-77
2022/12/11 12:21:23;;;;;;;;;;;;;;;0.83;84.19;98625.41;10251719;23;19924;-76
2022/12/11 12:25:44;;;;;;;;;;;;;;;0.90;84.22;98624.72;10254821;23;20271;-77
2022/12/11 12:30:01;;;;;;;;;;;;;;;0.95;83.80;98617.16;10277056;23;19924;-77
2022/12/11 12:34:18;;;;;;;;;;;;;;;0.99;83.49;98623.19;10225129;23;20668;-78
2022/12/11 12:38:29;;;;;;;;;;;;;;;0.92;82.85;98627.31;10252929;23;19960;-77
2022/12/11 12:42:36;;;;;;;;;;;;;;;0.83;82.17;98637.31;10228135;23;20316;-77
2022/12/11 12:46:59;;;;;;;;;;;;;;;0.77;82.16;98638.06;10280160;23;19928;-76
2022/12/11 12:51:00;;;;;;;;;;;;;;;0.77;82.31;98630.38;10228416;23;20292;-77
2022/12/11 12:55:21;;;;;;;;;;;;;;;0.77;82.39;98634.63;10230158;23;19963;-77
2022/12/11 12:59:24;;;;;;;;;;;;;;;0.75;81.88;98624.38;10277276;23;19966;-77
2022/12/11 13:03:29;;;;;;;;;;;;;;;0.77;82.16;98627.84;10220713;23;19947;-77
2022/12/11 13:07:31;;;;;;;;;;;;;;;0.77;82.65;98632.09;10254150;23;20362;-77
2022/12/11 13:11:33;;;;;;;;;;;;;;;0.70;82.40;98632.75;10253244;23;19947;-77
2022/12/11 13:15:42;;;;;;;;;;;;;;;0.66;82.15;98638.63;10244188;23;19966;-77
2022/12/11 13:19:44;;;;;;;;;;;;;;;0.65;82.62;98637.78;10250681;23;19955;-77
2022/12/11 13:23:45;;;;;;;;;;;;;;;0.67;83.06;98640.34;10227760;23;19986;-77
2022/12/11 13:27:48;;;;;;;;;;;;;;;0.68;82.84;98636.97;10276693;23;20015;-77
2022/12/11 13:31:54;;;;;;;;;;;;;;;0.73;82.42;98637.97;10268871;23;19969;-77
2022/12/11 13:36:05;;;;;;;;;;;;;;;0.78;82.73;98644.03;10253081;23;20567;-76
2022/12/11 13:40:18;;;;;;;;;;;;;;;0.72;82.51;98644.75;10227441;23;20636;-77
2022/12/11 13:44:24;;;;;;;;;;;;;;;0.72;81.87;98642.22;10250236;23;20307;-77
2022/12/11 13:48:29;;;;;;;;;;;;;;;0.78;82.83;98644.88;10246896;23;19982;-78
2022/12/11 13:52:31;;;;;;;;;;;;;;;0.80;83.01;98653.44;10253434;23;19954;-77
2022/12/11 13:56:33;;;;;;;;;;;;;;;0.77;82.41;98660.19;10279332;23;19997;-77
2022/12/11 14:00:34;;;;;;;;;;;;;;;0.70;82.20;98665.97;10268019;23;20286;-77
2022/12/11 14:04:37;;;;;;;;;;;;;;;0.65;82.33;98663.31;10252649;23;19935;-78
2022/12/11 14:08:41;;;;;;;;;;;;;;;0.61;83.34;98666.63;10276955;23;19920;-77
2022/12/11 14:12:46;;;;;;;;;;;;;;;0.61;83.61;98666.63;10228596;23;20334;-77
2022/12/11 14:16:49;;;;;;;;;;;;;;;0.60;84.32;98667.47;10222089;23;19936;-77
2022/12/11 14:20:55;;;;;;;;;;;;;;;0.61;84.92;98669.19;10251636;23;19931;-77
2022/12/11 14:24:57;;;;;;;;;;;;;;;0.59;84.93;98674.25;10229016;23;20199;-77
2022/12/11 14:28:59;;;;;;;;;;;;;;;0.58;84.84;98676.78;10252075;23;20303;-77
2022/12/11 14:33:04;;;;;;;;;;;;;;;0.53;84.45;98671.53;10219628;23;19920;-76
2022/12/11 14:37:06;;;;;;;;;;;;;;;0.49;84.46;98674.88;10253708;23;19924;-77
2022/12/11 14:41:15;;;;;;;;;;;;;;;0.48;84.44;98677.38;10251568;23;19923;-77
2022/12/11 14:45:21;;;;;;;;;;;;;;;0.48;84.48;98678.25;10275237;23;19981;-76
2022/12/11 14:49:33;;;;;;;;;;;;;;;0.47;85.27;98680.75;10252194;23;19970;-77
2022/12/11 14:53:36;;;;;;;;;;;;;;;0.44;85.38;98683.25;10226246;23;20436;-77
2022/12/11 14:57:39;;;;;;;;;;;;;;;0.44;85.38;98688.34;10251986;23;19990;-77
2022/12/11 15:01:40;;;;;;;;;;;;;;;0.46;85.87;98685.00;10271647;23;20406;-77
2022/12/11 15:05:49;;;;;;;;;;;;;;;0.47;85.89;98681.63;10278680;23;19923;-77
2022/12/11 15:09:50;;;;;;;;;;;;;;;0.49;85.55;98677.41;10250566;23;19935;-77
2022/12/11 15:13:53;;;;;;;;;;;;;;;0.48;85.39;98675.69;10275890;23;20003;-76
2022/12/11 15:17:55;;;;;;;;;;;;;;;0.46;85.15;98674.78;10269979;23;19987;-76
2022/12/11 15:22:01;;;;;;;;;;;;;;;0.44;85.35;98681.56;10250088;23;20509;-77
2022/12/11 15:26:03;;;;;;;;;;;;;;;0.43;85.21;98684.06;10225142;23;20014;-76
2022/12/11 15:30:18;;;;;;;;;;;;;;;0.41;85.66;98678.94;10219911;23;20207;-77
2022/12/11 15:34:20;;;;;;;;;;;;;;;0.39;85.85;98677.19;10198223;23;19980;-77
2022/12/11 15:38:41;;;;;;;;;;;;;;;0.36;86.17;98674.53;10169946;23;19924;-76
2022/12/11 15:42:42;;;;;;;;;;;;;;;0.33;86.20;98671.91;10201665;23;20697;-76
2022/12/11 15:46:43;;;;;;;;;;;;;;;0.36;87.02;98674.53;10172410;23;19991;-76
2022/12/11 15:50:45;;;;;;;;;;;;;;;0.36;87.43;98671.97;10177229;23;20340;-76
2022/12/11 15:54:46;;;;;;;;;;;;;;;0.36;87.14;98675.41;10175876;23;19924;-76
2022/12/11 15:58:48;;;;;;;;;;;;;;;0.36;87.36;98680.53;10175505;23;19956;-77
2022/12/11 16:02:50;;;;;;;;;;;;;;;0.35;87.49;98690.66;10169598;23;20275;-77
2022/12/11 16:06:52;;;;;;;;;;;;;;;0.32;87.72;98688.03;10178141;23;19956;-77
2022/12/11 16:10:53;;;;;;;;;;;;;;;0.31;87.36;98689.75;10178507;23;20011;-77
2022/12/11 16:14:55;;;;;;;;;;;;;;;0.33;87.12;98689.78;10179205;23;19924;-76
2022/12/11 16:18:56;;;;;;;;;;;;;;;0.30;87.32;98683.75;10153742;23;19924;-77
2022/12/11 16:22:58;;;;;;;;;;;;;;;0.36;87.53;98689.84;10179613;23;19952;-77
2022/12/11 16:27:00;;;;;;;;;;;;;;;0.35;87.77;98681.31;10179130;23;19971;-77
2022/12/11 16:31:01;;;;;;;;;;;;;;;0.35;87.67;98686.44;10199050;23;20058;-77
2022/12/11 16:35:03;;;;;;;;;;;;;;;0.38;88.54;98678.88;10229441;23;19920;-77
2022/12/11 16:39:05;;;;;;;;;;;;;;;0.38;88.07;98678.88;10229070;23;19923;-77
2022/12/11 16:43:07;;;;;;;;;;;;;;;0.39;88.46;98677.19;10228359;23;19924;-77
2022/12/11 16:47:08;;;;;;;;;;;;;;;0.39;88.29;98669.50;10248435;23;20330;-77
2022/12/11 16:51:10;;;;;;;;;;;;;;;0.39;88.01;98669.50;10276914;23;19920;-77
2022/12/11 16:55:12;;;;;;;;;;;;;;;0.38;88.23;98670.34;10254847;23;19919;-77
2022/12/11 16:59:14;;;;;;;;;;;;;;;0.36;88.16;98664.31;10253165;23;19955;-77
2022/12/11 17:03:15;;;;;;;;;;;;;;;0.32;88.42;98654.84;10245083;23;19985;-77
2022/12/11 17:07:18;;;;;;;;;;;;;;;0.32;88.39;98654.84;10252664;23;19970;-77
2022/12/11 17:11:21;;;;;;;;;;;;;;;0.28;88.48;98652.22;10275498;23;19966;-77
2022/12/11 17:15:23;;;;;;;;;;;;;;;0.29;88.54;98653.97;10247860;23;19923;-77
2022/12/11 17:19:24;;;;;;;;;;;;;;;0.31;88.83;98648.88;10279477;23;20314;-77
2022/12/11 17:23:27;;;;;;;;;;;;;;;0.25;88.24;98652.16;10253333;23;20334;-77
2022/12/11 17:27:28;;;;;;;;;;;;;;;0.26;88.12;98647.91;10278775;23;20223;-77
2022/12/11 17:31:30;;;;;;;;;;;;;;;0.30;88.32;98640.38;10270181;23;19958;-77
2022/12/11 17:35:32;;;;;;;;;;;;;;;0.33;88.77;98642.13;10226358;23;19967;-77
2022/12/11 17:39:33;;;;;;;;;;;;;;;0.29;88.19;98648.00;10252187;23;19923;-77
2022/12/11 17:43:35;;;;;;;;;;;;;;;0.27;88.44;98647.97;10251699;23;19981;-76
2022/12/11 17:47:36;;;;;;;;;;;;;;;0.24;88.27;98650.44;10247029;23;19955;-77
2022/12/11 17:51:38;;;;;;;;;;;;;;;0.24;88.32;98649.56;10228694;23;20011;-77
2022/12/11 17:55:43;;;;;;;;;;;;;;;0.25;88.24;98651.31;10278151;23;20014;-77
2022/12/11 17:59:45;;;;;;;;;;;;;;;0.25;88.00;98641.97;10251075;23;19919;-77
2022/12/11 18:03:46;;;;;;;;;;;;;;;0.21;87.53;98642.72;10271807;23;19924;-77
2022/12/11 18:07:47;;;;;;;;;;;;;;;0.19;86.97;98640.97;10279124;23;19931;-77
2022/12/11 18:11:57;;;;;;;;;;;;;;;0.15;86.26;98646.78;10276286;23;20023;-77
2022/12/11 18:16:06;;;;;;;;;;;;;;;0.13;86.45;98643.34;10246583;23;20280;-77
2022/12/11 18:20:09;;;;;;;;;;;;;;;-0.01;85.37;98642.97;10226735;23;19927;-77
2022/12/11 18:24:11;;;;;;;;;;;;;;;0.05;85.85;98645.72;10253986;23;20300;-77
2022/12/11 18:28:12;;;;;;;;;;;;;;;0.08;86.53;98647.47;10252348;23;19935;-77
2022/12/11 18:32:15;;;;;;;;;;;;;;;0.14;86.85;98645.91;10219074;23;19957;-77
2022/12/11 18:36:17;;;;;;;;;;;;;;;0.14;86.85;98640.81;10203712;23;19920;-77
2022/12/11 18:40:18;;;;;;;;;;;;;;;0.13;86.38;98639.09;10225813;23;20316;-77
2022/12/11 18:44:21;;;;;;;;;;;;;;;0.11;86.18;98648.41;10201636;23;19920;-77
2022/12/11 18:48:22;;;;;;;;;;;;;;;0.07;86.37;98653.41;10196325;23;19920;-77
2022/12/11 18:52:24;;;;;;;;;;;;;;;0.06;86.72;98656.78;10201081;23;20637;-77
2022/12/11 18:56:25;;;;;;;;;;;;;;;0.02;86.56;98657.53;10226580;23;20012;-77
2022/12/11 19:00:26;;;;;;;;;;;;;;;0.01;86.44;98654.13;10246116;23;19960;-77
2022/12/11 19:04:28;;;;;;;;;;;;;;;-0.03;86.38;98660.81;10229171;23;19924;-78
2022/12/11 19:08:29;;;;;;;;;;;;;;;-0.08;85.81;98658.97;10252085;23;19955;-77
2022/12/11 19:12:31;;;;;;;;;;;;;;;-0.08;85.53;98661.53;10228044;23;19924;-77
2022/12/11 19:16:34;;;;;;;;;;;;;;;-0.16;85.60;98666.44;10197579;23;19947;-77
2022/12/11 19:20:37;;;;;;;;;;;;;;;-0.14;86.09;98653.72;10202773;23;19923;-77
2022/12/11 19:24:59;;;;;;;;;;;;;;;-0.26;85.60;98656.81;10207404;23;19983;-77
2022/12/11 19:29:00;;;;;;;;;;;;;;;-0.28;85.64;98658.47;10200522;23;19920;-78
2022/12/11 19:33:02;;;;;;;;;;;;;;;-0.26;85.74;98659.34;10247243;23;19920;-77
2022/12/11 19:37:03;;;;;;;;;;;;;;;-0.25;85.85;98667.88;10227956;23;19955;-78
2022/12/11 19:41:07;;;;;;;;;;;;;;;-0.24;86.01;98654.28;10203031;23;20007;-78
2022/12/11 19:45:09;;;;;;;;;;;;;;;-0.31;86.06;98660.94;10203239;23;19920;-78
2022/12/11 19:49:11;;;;;;;;;;;;;;;-0.25;86.57;98663.63;10206150;23;19935;-78
2022/12/11 19:53:12;;;;;;;;;;;;;;;-0.22;86.59;98667.94;10230997;23;19970;-78
2022/12/11 19:57:14;;;;;;;;;;;;;;;-0.22;86.47;98665.41;10231408;23;19920;-78
2022/12/11 20:01:27;;;;;;;;;;;;;;;-0.27;86.40;98672.06;10198519;23;20315;-77
2022/12/11 20:05:29;;;;;;;;;;;;;;;-0.29;86.35;98671.19;10228871;23;20400;-78
2022/12/11 20:09:32;;;;;;;;;;;;;;;-0.34;86.87;98669.38;10229591;23;19987;-78
2022/12/11 20:13:34;;;;;;;;;;;;;;;-0.27;86.76;98662.75;10253282;23;19993;-78
2022/12/11 20:17:36;;;;;;;;;;;;;;;-0.22;86.76;98661.16;10220674;23;19924;-78
2022/12/11 20:21:38;;;;;;;;;;;;;;;-0.21;86.80;98665.44;10231311;23;20012;-78
2022/12/11 20:25:39;;;;;;;;;;;;;;;-0.18;87.11;98663.00;10206577;23;19966;-77
2022/12/11 20:29:41;;;;;;;;;;;;;;;-0.14;87.20;98666.47;10230704;23;19928;-78
2022/12/11 20:33:42;;;;;;;;;;;;;;;-0.14;87.61;98667.34;10223549;23;19924;-77
2022/12/11 20:37:44;;;;;;;;;;;;;;;-0.10;87.73;98658.06;10231105;23;19928;-78
2022/12/11 20:41:45;;;;;;;;;;;;;;;-0.09;87.80;98667.47;10228633;23;20056;-78
2022/12/11 20:45:47;;;;;;;;;;;;;;;-0.08;87.52;98667.50;10198417;23;19955;-77
2022/12/11 20:49:49;;;;;;;;;;;;;;;-0.08;87.03;98666.63;10230614;23;19927;-78
2022/12/11 20:53:57;;;;;;;;;;;;;;;-0.09;87.36;98663.22;10231561;23;19924;-77
2022/12/11 20:57:58;;;;;;;;;;;;;;;-0.10;87.61;98665.72;10229864;23;20131;-77
2022/12/11 21:01:59;;;;;;;;;;;;;;;-0.10;87.70;98660.63;10199200;23;19936;-78
2022/12/11 21:06:01;;;;;;;;;;;;;;;-0.10;87.69;98668.28;10230433;23;19963;-77
2022/12/11 21:10:03;;;;;;;;;;;;;;;-0.09;87.62;98673.41;10229695;23;19978;-77
2022/12/11 21:14:05;;;;;;;;;;;;;;;-0.09;87.33;98682.75;10206281;23;19956;-77
2022/12/11 21:18:06;;;;;;;;;;;;;;;-0.10;87.13;98678.50;10224262;23;19928;-77
2022/12/11 21:22:08;;;;;;;;;;;;;;;-0.13;86.93;98675.84;10228400;23;19928;-78
2022/12/11 21:26:09;;;;;;;;;;;;;;;-0.17;86.89;98676.63;10204015;23;19963;-77
2022/12/11 21:30:11;;;;;;;;;;;;;;;-0.19;87.01;98676.53;10223923;23;20322;-78
2022/12/11 21:34:15;;;;;;;;;;;;;;;-0.21;86.99;98680.75;10229760;23;19931;-78
2022/12/11 21:38:32;;;;;;;;;;;;;;;-0.25;86.89;98678.06;10176679;23;19934;-78
2022/12/11 21:42:56;;;;;;;;;;;;;;;-0.21;87.33;98684.97;10223121;23;19924;-78
2022/12/11 21:46:58;;;;;;;;;;;;;;;-0.21;87.36;98683.28;10196764;23;19978;-77
2022/12/11 21:51:27;;;;;;;;;;;;;;;-0.19;87.03;98683.34;10202367;23;19931;-77
2022/12/11 21:55:40;;;;;;;;;;;;;;;-0.23;87.00;98682.38;10228073;23;19924;-76
2022/12/11 22:00:04;;;;;;;;;;;;;;;-0.22;87.34;98683.25;10201575;23;20027;-77
2022/12/11 22:04:26;;;;;;;;;;;;;;;-0.22;87.09;98680.72;10228700;23;19931;-77
2022/12/11 22:08:31;;;;;;;;;;;;;;;-0.22;87.21;98690.91;10179996;23;19927;-77
2022/12/11 22:12:38;;;;;;;;;;;;;;;-0.29;86.81;98683.94;10223771;23;19920;-77
2022/12/11 22:17:02;;;;;;;;;;;;;;;-0.29;87.02;98683.94;10225976;23;19924;-77
2022/12/11 22:21:04;;;;;;;;;;;;;;;-0.29;86.94;98682.25;10225796;23;19925;-77
2022/12/11 22:25:06;;;;;;;;;;;;;;;-0.32;86.92;98684.72;10199933;23;19966;-77
2022/12/11 22:29:08;;;;;;;;;;;;;;;-0.31;86.82;98682.19;10228481;23;19924;-77
2022/12/11 22:33:09;;;;;;;;;;;;;;;-0.29;86.88;98684.78;10182526;23;19936;-77
2022/12/11 22:37:10;;;;;;;;;;;;;;;-0.32;86.99;98685.56;10153597;23;19920;-77
2022/12/11 22:41:13;;;;;;;;;;;;;;;-0.32;86.92;98683.03;10178654;23;20007;-77
2022/12/11 22:45:22;;;;;;;;;;;;;;;-0.31;87.17;98682.19;10148313;23;20333;-76
2022/12/11 22:49:57;;;;;;;;;;;;;;;-0.29;87.18;98684.78;10162390;23;19924;-76
2022/12/11 22:54:02;;;;;;;;;;;;;;;-0.32;87.16;98683.03;10177208;23;19987;-76
2022/12/11 22:58:09;;;;;;;;;;;;;;;-0.29;87.34;98682.25;10153394;23;19995;-77
2022/12/11 23:02:22;;;;;;;;;;;;;;;-0.26;87.07;98689.97;10172655;23;19925;-77
2022/12/11 23:06:23;;;;;;;;;;;;;;;-0.27;87.07;98695.91;10154029;23;20344;-77
2022/12/11 23:10:25;;;;;;;;;;;;;;;-0.27;86.88;98695.03;10177659;23;19924;-77
2022/12/11 23:14:26;;;;;;;;;;;;;;;-0.27;86.74;98692.47;10178022;23;19924;-77
2022/12/11 23:18:27;;;;;;;;;;;;;;;-0.26;86.91;98691.66;10146790;23;19931;-77
2022/12/11 23:22:29;;;;;;;;;;;;;;;-0.27;86.99;98698.44;10156524;23;19921;-77
2022/12/11 23:26:30;;;;;;;;;;;;;;;-0.27;86.89;98701.00;10184149;23;19988;-77
2022/12/11 23:30:32;;;;;;;;;;;;;;;-0.21;87.24;98700.28;10151777;23;19929;-77
2022/12/11 23:34:33;;;;;;;;;;;;;;;-0.21;86.86;98703.69;10230945;23;19935;-77
2022/12/11 23:38:35;;;;;;;;;;;;;;;-0.23;87.15;98700.25;10229450;23;19930;-77
2022/12/11 23:42:37;;;;;;;;;;;;;;;-0.20;87.67;98702.88;10204508;23;20015;-77
2022/12/11 23:46:38;;;;;;;;;;;;;;;-0.16;87.99;98714.91;10195366;23;19963;-76
2022/12/11 23:50:41;;;;;;;;;;;;;;;-0.14;87.99;98707.31;10177942;23;19924;-76
2022/12/11 23:54:42;;;;;;;;;;;;;;;-0.16;88.54;98702.16;10179884;23;19924;-76
2022/12/11 23:58:44;;;;;;;;;;;;;;;-0.16;88.03;98698.75;10202634;23;19963;-76
